Terminal Aerodrome Forecast
Issued by NWS Albany, NY

Home | Current Version | Previous Version | Text Only | Print | Product List | Glossary On
Versions: 1 2 3 4 5 6 7 8 9 10 11 12 13 14 15 16 17 18 19 20
000
FTUS41 KALY 151129
TAFGFL
TAF
KGFL 151129Z 1512/1612 VRB03KT P6SM SCT250
     FM151900 18006KT P6SM BKN110
     FM160300 19004KT P6SM BKN030
     FM161000 20006KT P6SM BKN050=

USA.gov is the U.S. government's official web portal to all federal, state and local government web resources and services.